Time;durP1;ratioP1;P1;durP2;ratioP2;P2;SDS_P1;SDS_P2;PMS_P1;PMS_P2;Temp;Humidity;BMP_temperature;BMP_pressure;BME280_temperature;BME280_humidity;BME280_pressure;Samples;Min_cycle;Max_cycle;Signal;HPM_P1;HPM_P2
2022/09/05 04:01:19;;;;;;;5.33;4.30;;;16.20;99.90;;;;;;5629805;23;20499;-74
2022/09/05 04:03:49;;;;;;;4.23;3.70;;;16.20;99.90;;;;;;4988827;28;20692;-74
2022/09/05 04:06:20;;;;;;;6.50;4.40;;;16.20;99.90;;;;;;4987831;28;20460;-74
2022/09/05 04:08:52;;;;;;;5.70;4.30;;;16.20;99.90;;;;;;4988440;28;20874;-73
2022/09/05 04:11:30;;;;;;;5.33;4.20;;;16.10;99.90;;;;;;4988210;28;20483;-74
2022/09/05 04:14:01;;;;;;;5.17;4.30;;;16.20;99.90;;;;;;4988210;28;20482;-73
2022/09/05 04:16:33;;;;;;;6.40;4.30;;;16.20;99.90;;;;;;4988855;28;20472;-73
2022/09/05 04:19:10;;;;;;;6.10;4.50;;;16.10;99.90;;;;;;4989974;28;20436;-73
2022/09/05 04:21:43;;;;;;;8.97;4.20;;;16.10;99.90;;;;;;4987834;28;20491;-73
2022/09/05 04:24:24;;;;;;;6.03;4.07;;;16.10;99.90;;;;;;4989750;28;20498;-73
2022/09/05 04:27:05;;;;;;;7.33;4.90;;;16.10;99.90;;;;;;4989796;28;20467;-73
2022/09/05 04:29:45;;;;;;;6.10;4.67;;;16.10;99.90;;;;;;4987105;28;20462;-74
2022/09/05 04:32:23;;;;;;;5.57;4.73;;;16.00;99.90;;;;;;4987521;28;20487;-74
2022/09/05 04:35:14;;;;;;;5.70;4.50;;;16.00;99.90;;;;;;4987431;28;20940;-74
2022/09/05 04:37:52;;;;;;;6.53;4.17;;;16.00;99.90;;;;;;4988481;28;20444;-74
2022/09/05 04:40:38;;;;;;;5.10;4.37;;;16.00;99.90;;;;;;4988550;28;20448;-73
2022/09/05 04:43:07;;;;;;;8.87;4.70;;;15.90;99.90;;;;;;4988197;28;20498;-73
2022/09/05 04:45:39;;;;;;;5.60;4.93;;;15.90;99.90;;;;;;4987504;28;20558;-72
2022/09/05 04:48:12;;;;;;;7.57;5.23;;;15.90;99.90;;;;;;4988054;28;20464;-73
2022/09/05 04:50:57;;;;;;;5.80;4.80;;;15.90;99.90;;;;;;4988212;28;20514;-73
2022/09/05 04:53:41;;;;;;;6.10;4.60;;;15.90;99.90;;;;;;4987987;28;20522;-73
2022/09/05 04:56:14;;;;;;;10.70;5.50;;;15.90;99.90;;;;;;4987042;28;20444;-73
2022/09/05 04:58:47;;;;;;;7.07;4.53;;;15.90;99.90;;;;;;4988032;28;20436;-73
2022/09/05 05:01:18;;;;;;;5.63;5.00;;;15.80;99.90;;;;;;4987508;28;20507;-73
2022/09/05 05:03:48;;;;;;;7.03;5.47;;;15.80;99.90;;;;;;4987863;28;20444;-74
2022/09/05 05:06:25;;;;;;;6.73;4.80;;;15.90;99.90;;;;;;4986941;28;20464;-74
2022/09/05 05:08:59;;;;;;;6.70;5.10;;;15.80;99.90;;;;;;4987867;28;20973;-74
2022/09/05 05:11:48;;;;;;;5.20;4.60;;;15.90;99.90;;;;;;4987297;28;20470;-74
2022/09/05 05:14:23;;;;;;;5.73;4.70;;;15.80;99.90;;;;;;4987007;28;20818;-74
2022/09/05 05:16:54;;;;;;;8.00;4.60;;;15.80;99.90;;;;;;4984335;28;20521;-74
2022/09/05 05:19:29;;;;;;;6.83;4.77;;;15.80;99.90;;;;;;4986794;28;20491;-74
2022/09/05 05:21:58;;;;;;;5.20;4.30;;;15.80;99.90;;;;;;4987084;28;20835;-74
2022/09/05 05:24:30;;;;;;;5.70;4.60;;;15.80;99.90;;;;;;4986276;28;20822;-74
2022/09/05 05:27:06;;;;;;;6.60;5.50;;;15.80;99.90;;;;;;4987525;28;20498;-74
2022/09/05 05:29:42;;;;;;;5.50;4.60;;;15.80;99.90;;;;;;4987289;28;20467;-74
2022/09/05 05:32:15;;;;;;;5.13;4.63;;;15.80;99.90;;;;;;4987188;28;20476;-74
2022/09/05 05:34:47;;;;;;;5.33;4.83;;;15.80;99.90;;;;;;4986615;28;20828;-74
2022/09/05 05:37:21;;;;;;;7.50;4.73;;;15.80;99.90;;;;;;4986675;28;20806;-74
2022/09/05 05:39:52;;;;;;;5.57;4.80;;;15.90;99.90;;;;;;4986956;28;20463;-74
2022/09/05 05:42:23;;;;;;;6.97;4.80;;;15.90;99.90;;;;;;4986620;28;20495;-74
2022/09/05 05:44:52;;;;;;;5.90;5.23;;;16.00;99.90;;;;;;4986132;28;20470;-74
2022/09/05 05:47:22;;;;;;;13.03;5.20;;;16.00;99.90;;;;;;4986687;28;20467;-74
2022/09/05 05:50:00;;;;;;;8.03;5.70;;;16.00;99.90;;;;;;4987062;28;20464;-74
2022/09/05 05:53:05;;;;;;;5.47;4.87;;;16.10;99.90;;;;;;4986784;28;20841;-74
2022/09/05 05:55:56;;;;;;;8.57;5.83;;;16.10;99.90;;;;;;4985880;28;21055;-74
2022/09/05 05:58:52;;;;;;;6.20;5.20;;;16.00;99.90;;;;;;4986782;28;20467;-74
2022/09/05 06:01:46;;;;;;;5.63;4.97;;;16.10;99.90;;;;;;4986095;28;20975;-74
2022/09/05 06:04:50;;;;;;;7.20;5.77;;;16.10;99.90;;;;;;4984779;28;20446;-75
2022/09/05 06:07:34;;;;;;;9.13;5.47;;;16.10;99.90;;;;;;4985150;28;20474;-75
2022/09/05 06:10:22;;;;;;;8.23;4.97;;;16.10;99.90;;;;;;4986040;28;20460;-66
2022/09/05 06:13:27;;;;;;;6.23;5.63;;;16.10;99.90;;;;;;4986629;28;20436;-66
2022/09/05 06:16:47;;;;;;;7.93;5.10;;;16.20;99.90;;;;;;4985858;28;20459;-67
2022/09/05 06:19:44;;;;;;;6.30;5.33;;;16.20;99.90;;;;;;4925887;29;20458;-65
2022/09/05 06:22:52;;;;;;;5.70;5.10;;;16.20;99.90;;;;;;4985614;28;21094;-65
2022/09/05 06:25:51;;;;;;;5.87;4.67;;;16.30;99.90;;;;;;4985687;28;20538;-77
2022/09/05 06:28:25;;;;;;;6.43;5.80;;;16.30;99.90;;;;;;4968243;28;20460;-77
2022/09/05 06:31:10;;;;;;;6.00;5.40;;;16.30;99.90;;;;;;4987088;28;20479;-76
2022/09/05 06:33:53;;;;;;;7.90;4.90;;;16.40;99.90;;;;;;4987310;28;20440;-76
2022/09/05 06:36:42;;;;;;;5.60;4.80;;;16.40;99.90;;;;;;4986299;28;20466;-77
2022/09/05 06:39:14;;;;;;;5.37;4.87;;;16.40;99.90;;;;;;4987351;28;20470;-77
2022/09/05 06:41:56;;;;;;;8.93;5.53;;;16.50;99.90;;;;;;4986558;28;20853;-77
2022/09/05 06:44:52;;;;;;;6.80;6.10;;;16.50;99.90;;;;;;4986737;28;20459;-77
2022/09/05 06:47:20;;;;;;;9.50;6.33;;;16.60;99.90;;;;;;4984188;28;20464;-77
2022/09/05 06:50:04;;;;;;;6.33;5.37;;;16.60;99.90;;;;;;4990387;28;20452;-77
2022/09/05 06:53:11;;;;;;;7.00;5.27;;;16.60;99.90;;;;;;4990989;28;20546;-77
2022/09/05 06:55:55;;;;;;;11.53;5.40;;;16.70;99.90;;;;;;4990545;28;20447;-77
2022/09/05 06:58:52;;;;;;;7.20;5.40;;;16.70;99.90;;;;;;4990749;28;20502;-77
2022/09/05 07:01:26;;;;;;;6.90;5.30;;;16.70;99.90;;;;;;4990761;28;20590;-77
2022/09/05 07:04:13;;;;;;;6.23;5.23;;;16.70;99.90;;;;;;4990660;28;20583;-77
2022/09/05 07:06:56;;;;;;;7.83;4.87;;;16.80;99.90;;;;;;4989520;28;20443;-77
2022/09/05 07:09:27;;;;;;;8.13;5.13;;;16.90;99.90;;;;;;4989628;28;21038;-77
2022/09/05 07:12:03;;;;;;;12.13;5.23;;;17.00;99.90;;;;;;4990228;28;20471;-77
2022/09/05 07:14:35;;;;;;;8.80;4.73;;;17.00;99.90;;;;;;4987671;28;20455;-78
2022/09/05 07:17:10;;;;;;;7.23;5.17;;;17.10;99.90;;;;;;4990438;28;20459;-77
2022/09/05 07:19:43;;;;;;;6.43;5.17;;;17.20;99.90;;;;;;4990580;28;20790;-77
2022/09/05 07:22:32;;;;;;;6.10;4.50;;;17.30;99.90;;;;;;4989234;28;20505;-78
2022/09/05 07:25:05;;;;;;;5.57;5.07;;;17.40;99.90;;;;;;4990218;28;20462;-77
2022/09/05 07:27:38;;;;;;;5.20;4.60;;;17.50;99.90;;;;;;4990809;28;20455;-77
2022/09/05 07:30:06;;;;;;;4.67;4.23;;;17.60;99.90;;;;;;4990419;28;20970;-77
2022/09/05 07:32:41;;;;;;;7.10;4.33;;;17.60;99.90;;;;;;4990871;28;20874;-77
2022/09/05 07:35:16;;;;;;;6.97;4.13;;;17.80;99.90;;;;;;4989789;28;20447;-77
2022/09/05 07:37:45;;;;;;;5.13;4.20;;;17.90;99.90;;;;;;4990595;28;20451;-77
2022/09/05 07:40:16;;;;;;;4.60;3.80;;;18.00;99.90;;;;;;4990874;28;20455;-77
2022/09/05 07:42:48;;;;;;;6.23;4.20;;;18.10;99.90;;;;;;4990995;28;20499;-77
2022/09/05 07:45:23;;;;;;;5.77;4.27;;;18.20;99.90;;;;;;4990092;28;20446;-77
2022/09/05 07:47:58;;;;;;;5.33;4.10;;;18.30;99.90;;;;;;4990260;28;20462;-77
2022/09/05 07:50:27;;;;;;;6.67;4.17;;;18.40;99.90;;;;;;4990298;28;20458;-76
2022/09/05 07:52:57;;;;;;;7.60;3.77;;;18.60;99.90;;;;;;4990494;28;20955;-76
2022/09/05 07:55:28;;;;;;;4.03;3.40;;;18.70;99.90;;;;;;4989923;28;20491;-77
2022/09/05 07:57:59;;;;;;;6.03;4.50;;;18.80;99.90;;;;;;4990009;28;20467;-77
2022/09/05 08:00:28;;;;;;;3.80;3.40;;;18.90;99.90;;;;;;4989596;28;20573;-77
2022/09/05 08:02:57;;;;;;;7.27;3.83;;;19.00;99.90;;;;;;4990187;28;20882;-77
2022/09/05 08:05:27;;;;;;;4.80;3.00;;;19.10;99.90;;;;;;4989632;28;20559;-78
2022/09/05 08:07:57;;;;;;;5.13;3.37;;;19.30;99.90;;;;;;4990256;28;20511;-78
2022/09/05 08:10:29;;;;;;;4.90;3.30;;;19.50;99.90;;;;;;4990379;28;20468;-78
2022/09/05 08:13:02;;;;;;;3.37;2.70;;;19.60;99.90;;;;;;4990641;28;20446;-77
2022/09/05 08:15:30;;;;;;;3.90;2.83;;;19.70;99.90;;;;;;4988296;28;21145;-78
2022/09/05 08:18:14;;;;;;;3.93;2.80;;;19.90;99.90;;;;;;4989431;28;20470;-77
2022/09/05 08:20:45;;;;;;;3.30;2.57;;;20.10;99.90;;;;;;4989841;28;20487;-77
2022/09/05 08:23:29;;;;;;;3.70;3.30;;;20.20;99.90;;;;;;4988356;28;20850;-78
2022/09/05 08:25:59;;;;;;;4.20;2.83;;;20.40;99.90;;;;;;4988861;28;20999;-77
2022/09/05 08:28:34;;;;;;;3.20;2.60;;;20.70;99.90;;;;;;4989648;28;20460;-78
2022/09/05 08:31:06;;;;;;;3.80;2.70;;;20.80;99.90;;;;;;4990332;28;20475;-78
2022/09/05 08:33:35;;;;;;;3.27;2.47;;;21.10;99.90;;;;;;4989779;28;20444;-78
2022/09/05 08:36:09;;;;;;;3.40;2.80;;;21.50;99.90;;;;;;4989339;28;20470;-78
2022/09/05 08:38:39;;;;;;;7.00;2.47;;;21.70;99.90;;;;;;4989905;28;20451;-78
2022/09/05 08:41:13;;;;;;;2.93;2.40;;;22.30;99.90;;;;;;4989568;28;20471;-78
2022/09/05 08:43:52;;;;;;;3.67;2.90;;;22.50;99.90;;;;;;4990505;28;20487;-78
2022/09/05 08:46:27;;;;;;;5.23;2.67;;;23.00;99.90;;;;;;4989827;28;20466;-78
2022/09/05 08:49:28;;;;;;;4.73;2.40;;;23.20;99.90;;;;;;4990955;28;20590;-78
2022/09/05 08:52:01;;;;;;;7.90;2.50;;;24.10;99.90;;;;;;4976129;28;20491;-79
2022/09/05 08:54:35;;;;;;;4.80;2.40;;;24.30;99.90;;;;;;4990128;28;20463;-78
2022/09/05 08:57:12;;;;;;;2.90;2.10;;;24.50;99.90;;;;;;4990128;28;20933;-79
2022/09/05 08:59:45;;;;;;;3.73;2.60;;;24.70;99.90;;;;;;4990851;28;21289;-78
2022/09/05 09:02:32;;;;;;;3.03;2.47;;;25.20;99.90;;;;;;4990735;28;20491;-78
2022/09/05 09:05:09;;;;;;;5.50;1.90;;;25.20;99.90;;;;;;4989870;28;20963;-79
2022/09/05 09:07:39;;;;;;;3.37;2.07;;;25.20;99.90;;;;;;4990862;28;21030;-79
2022/09/05 09:10:23;;;;;;;2.77;2.10;;;25.50;99.90;;;;;;4990301;28;20535;-79
2022/09/05 09:13:17;;;;;;;3.80;2.23;;;26.00;99.90;;;;;;4990071;28;20450;-79
2022/09/05 09:15:54;;;;;;;2.20;1.90;;;26.30;99.90;;;;;;4989519;28;20482;-78
2022/09/05 09:18:31;;;;;;;2.63;2.13;;;26.70;99.90;;;;;;4990725;28;20448;-79
2022/09/05 09:21:12;;;;;;;2.13;1.93;;;27.40;99.90;;;;;;4990453;28;21102;-80
2022/09/05 09:23:49;;;;;;;1.83;1.73;;;27.40;99.90;;;;;;4990706;28;20866;-80
2022/09/05 09:26:18;;;;;;;2.30;1.90;;;27.80;99.90;;;;;;4990266;28;20471;-80
2022/09/05 09:28:50;;;;;;;3.00;1.80;;;28.20;99.90;;;;;;4991189;28;20468;-80
2022/09/05 09:31:36;;;;;;;1.93;1.63;;;28.20;99.90;;;;;;4990276;28;20952;-80
2022/09/05 09:34:16;;;;;;;2.20;1.70;;;28.80;99.90;;;;;;4988518;28;20489;-80
2022/09/05 09:37:16;;;;;;;1.73;1.40;;;29.30;99.90;;;;;;4990959;28;21419;-80
2022/09/05 09:40:03;;;;;;;7.30;1.80;;;29.90;99.90;;;;;;4975968;28;20473;-80
2022/09/05 09:42:37;;;;;;;2.20;1.60;;;30.20;99.90;;;;;;4990443;28;20483;-80
2022/09/05 09:45:34;;;;;;;1.87;1.70;;;30.00;99.90;;;;;;4989529;28;20440;-80
2022/09/05 09:48:43;;;;;;;1.90;1.50;;;30.10;99.90;;;;;;4981072;28;20475;-80
2022/09/05 09:51:48;;;;;;;4.63;1.80;;;30.80;99.90;;;;;;4990195;28;20483;-79
2022/09/05 09:54:55;;;;;;;1.70;1.60;;;31.40;99.90;;;;;;4963263;28;20562;-79
2022/09/05 09:57:49;;;;;;;5.10;1.70;;;31.80;99.90;;;;;;4990485;28;20475;-79
2022/09/05 10:00:20;;;;;;;2.77;1.83;;;31.60;99.90;;;;;;4991120;28;20561;-80
2022/09/05 10:03:27;;;;;;;2.00;1.83;;;31.40;99.90;;;;;;4990468;28;22359;-78
2022/09/05 10:06:07;;;;;;;1.87;1.60;;;31.60;99.90;;;;;;4990397;28;20440;-79
2022/09/05 10:09:06;;;;;;;2.53;1.60;;;31.60;99.90;;;;;;4990169;28;20450;-79
2022/09/05 10:11:59;;;;;;;1.60;1.50;;;32.00;99.90;;;;;;4986122;28;20923;-80
2022/09/05 10:14:58;;;;;;;1.93;1.50;;;32.60;99.90;;;;;;4994992;28;20460;-80
2022/09/05 10:17:45;;;;;;;3.00;1.70;;;32.50;99.90;;;;;;4992019;28;20809;-80
2022/09/05 10:20:48;;;;;;;2.20;1.47;;;32.40;99.90;;;;;;4991244;28;20451;-80
2022/09/05 10:23:38;;;;;;;3.83;1.93;;;32.30;99.90;;;;;;4981565;28;20499;-80
2022/09/05 10:26:38;;;;;;;2.20;1.73;;;32.40;99.90;;;;;;4990437;28;21111;-80
2022/09/05 10:29:10;;;;;;;2.33;1.97;;;32.90;99.90;;;;;;4990257;28;20454;-79
2022/09/05 10:31:55;;;;;;;2.97;1.50;;;32.70;99.90;;;;;;4990320;28;20579;-80
2022/09/05 10:34:25;;;;;;;3.13;1.57;;;33.20;98.90;;;;;;4988849;28;20487;-79
2022/09/05 10:37:01;;;;;;;1.70;1.60;;;33.40;98.40;;;;;;4990658;28;20567;-80
2022/09/05 10:39:51;;;;;;;2.13;1.87;;;33.30;98.20;;;;;;4990778;28;20451;-80
2022/09/05 10:42:32;;;;;;;2.27;1.80;;;32.90;99.90;;;;;;4989685;28;20542;-80
2022/09/05 10:45:04;;;;;;;4.63;1.60;;;33.40;97.50;;;;;;4988430;28;20480;-79
2022/09/05 10:47:39;;;;;;;2.13;1.70;;;33.80;95.20;;;;;;4989946;28;20448;-79
2022/09/05 10:50:18;;;;;;;2.43;1.40;;;34.30;95.80;;;;;;4990698;28;21006;-79
2022/09/05 10:53:01;;;;;;;2.07;1.33;;;33.80;95.90;;;;;;4989952;28;20916;-79
2022/09/05 10:55:37;;;;;;;3.13;1.53;;;33.70;95.60;;;;;;4988029;28;20463;-79
2022/09/05 10:58:14;;;;;;;2.73;1.80;;;33.50;95.80;;;;;;4989980;28;20479;-80
2022/09/05 11:00:58;;;;;;;1.90;1.40;;;33.40;95.90;;;;;;4988594;28;21050;-78
2022/09/05 11:03:30;;;;;;;3.77;1.33;;;33.30;95.10;;;;;;4989733;28;20490;-79
2022/09/05 11:05:59;;;;;;;1.87;1.30;;;33.40;94.00;;;;;;4988505;28;20451;-79
2022/09/05 11:08:34;;;;;;;1.90;1.60;;;33.20;93.60;;;;;;4988695;28;21163;-79
2022/09/05 11:11:15;;;;;;;2.77;1.50;;;33.10;94.70;;;;;;4989728;28;20858;-79
2022/09/05 11:13:49;;;;;;;2.13;1.50;;;33.40;93.50;;;;;;4989749;28;20444;-79
2022/09/05 11:16:27;;;;;;;2.13;1.70;;;34.00;92.20;;;;;;4989569;28;20510;-78
2022/09/05 11:19:01;;;;;;;2.07;1.70;;;33.60;92.70;;;;;;4989876;28;20554;-79
2022/09/05 11:21:37;;;;;;;2.20;1.70;;;33.60;92.80;;;;;;4989471;28;20865;-79
2022/09/05 11:24:17;;;;;;;2.00;1.67;;;34.10;91.50;;;;;;4989048;28;20479;-79
2022/09/05 11:26:47;;;;;;;4.40;1.60;;;34.60;89.60;;;;;;4989509;28;20452;-79
2022/09/05 11:29:20;;;;;;;2.10;1.53;;;34.90;90.10;;;;;;4989035;28;20470;-78
2022/09/05 11:32:08;;;;;;;2.90;1.63;;;35.10;89.20;;;;;;4988279;28;20516;-78
2022/09/05 11:34:56;;;;;;;4.00;1.70;;;35.00;89.90;;;;;;4989301;28;20461;-78
2022/09/05 11:37:40;;;;;;;1.83;1.37;;;35.00;86.90;;;;;;4991998;28;20458;-78
2022/09/05 11:40:25;;;;;;;1.80;1.50;;;35.80;84.10;;;;;;4991553;28;21354;-78
2022/09/05 11:43:35;;;;;;;2.90;1.70;;;36.10;81.80;;;;;;4991396;28;20463;-79
2022/09/05 11:46:27;;;;;;;1.80;1.70;;;35.90;82.50;;;;;;4986937;28;20459;-78
2022/09/05 11:49:31;;;;;;;1.73;1.40;;;35.30;82.20;;;;;;4984920;28;20510;-77
2022/09/05 11:52:31;;;;;;;2.73;1.40;;;35.80;81.20;;;;;;4988515;28;20829;-78
2022/09/05 11:55:28;;;;;;;3.00;1.63;;;36.50;79.80;;;;;;4987159;28;20444;-78
2022/09/05 11:58:11;;;;;;;2.07;1.70;;;36.10;80.50;;;;;;4990285;28;20467;-78
2022/09/05 12:00:42;;;;;;;1.60;1.50;;;35.20;83.60;;;;;;4990429;28;20491;-78
2022/09/05 12:03:35;;;;;;;2.20;1.80;;;34.70;83.30;;;;;;4991073;28;20460;-77
2022/09/05 12:06:28;;;;;;;1.93;1.73;;;34.80;80.70;;;;;;4981330;28;20467;-78
2022/09/05 12:09:05;;;;;;;1.83;1.60;;;34.70;80.10;;;;;;4990675;28;20476;-77
2022/09/05 12:11:47;;;;;;;2.50;1.70;;;34.50;82.20;;;;;;4990723;28;20542;-78
2022/09/05 12:14:39;;;;;;;3.77;1.70;;;34.20;79.40;;;;;;4989936;28;20514;-77
2022/09/05 12:17:18;;;;;;;2.10;1.60;;;34.20;79.40;;;;;;4990369;28;20534;-77
2022/09/05 12:19:55;;;;;;;1.53;1.40;;;34.00;82.10;;;;;;4989922;28;20816;-77
2022/09/05 12:22:30;;;;;;;3.13;1.73;;;33.80;82.30;;;;;;4990224;28;20487;-77
2022/09/05 12:25:36;;;;;;;2.40;1.77;;;34.10;78.60;;;;;;4989808;28;20581;-78
2022/09/05 12:28:10;;;;;;;1.43;1.33;;;34.90;76.30;;;;;;4956230;28;20478;-78
2022/09/05 12:30:41;;;;;;;3.60;1.63;;;35.50;75.70;;;;;;4990726;28;20486;-78
2022/09/05 12:33:22;;;;;;;1.90;1.60;;;35.90;74.80;;;;;;4991613;28;20545;-78
2022/09/05 12:35:54;;;;;;;2.83;1.40;;;36.00;72.30;;;;;;4990678;28;20460;-78
2022/09/05 12:38:33;;;;;;;2.17;1.80;;;35.60;74.70;;;;;;4991750;28;20540;-78
2022/09/05 12:41:09;;;;;;;2.57;1.70;;;34.70;74.10;;;;;;4991395;28;20478;-78
2022/09/05 12:43:42;;;;;;;6.60;1.60;;;34.10;73.60;;;;;;4991185;28;20491;-78
2022/09/05 12:46:17;;;;;;;2.37;1.90;;;33.60;74.30;;;;;;4990021;28;20464;-78
2022/09/05 12:48:52;;;;;;;2.73;1.60;;;33.40;75.90;;;;;;4991142;28;20474;-78
2022/09/05 12:51:22;;;;;;;3.70;1.67;;;33.30;74.70;;;;;;4991003;28;20493;-78
2022/09/05 12:53:53;;;;;;;1.50;1.30;;;33.50;75.50;;;;;;4990907;28;20474;-78
2022/09/05 12:56:29;;;;;;;3.03;2.03;;;33.40;72.20;;;;;;4990488;28;20451;-78
2022/09/05 12:58:59;;;;;;;2.10;1.40;;;33.00;75.70;;;;;;4990959;28;20470;-78
2022/09/05 13:01:30;;;;;;;2.27;1.80;;;32.90;73.80;;;;;;4991101;28;20498;-78
2022/09/05 13:04:01;;;;;;;2.57;1.40;;;32.90;75.20;;;;;;4990077;28;20499;-78
2022/09/05 13:06:34;;;;;;;3.20;1.53;;;32.70;73.30;;;;;;4989096;28;20452;-78
2022/09/05 13:09:05;;;;;;;1.70;1.60;;;32.40;72.40;;;;;;4990359;28;20448;-78
2022/09/05 13:11:45;;;;;;;1.87;1.20;;;32.20;74.10;;;;;;4990152;28;20539;-78
2022/09/05 13:14:22;;;;;;;5.47;1.40;;;32.10;73.10;;;;;;4989639;28;20464;-78
2022/09/05 13:16:50;;;;;;;3.00;1.70;;;32.00;72.20;;;;;;4990355;28;20833;-78
2022/09/05 13:19:44;;;;;;;2.50;1.30;;;32.10;72.60;;;;;;4990044;28;20463;-78
2022/09/05 13:22:14;;;;;;;2.10;1.40;;;32.50;71.70;;;;;;4989616;28;20550;-78
2022/09/05 13:24:44;;;;;;;1.43;1.33;;;32.80;70.10;;;;;;4988928;28;20491;-78
2022/09/05 13:27:15;;;;;;;2.00;1.40;;;32.70;69.90;;;;;;4990038;28;20460;-78
2022/09/05 13:29:54;;;;;;;2.57;1.40;;;32.60;71.30;;;;;;4988495;28;20464;-77
2022/09/05 13:32:29;;;;;;;2.83;1.60;;;32.50;70.00;;;;;;4987894;28;20967;-78
2022/09/05 13:35:03;;;;;;;2.00;1.37;;;32.50;71.10;;;;;;4987284;28;20455;-77
2022/09/05 13:37:35;;;;;;;2.70;1.50;;;32.30;71.10;;;;;;4987674;28;20571;-77
2022/09/05 13:40:08;;;;;;;1.60;1.50;;;32.30;70.20;;;;;;4988068;28;20470;-78
2022/09/05 13:42:39;;;;;;;5.97;1.60;;;32.20;70.80;;;;;;4986669;28;20495;-77
2022/09/05 13:45:17;;;;;;;3.63;1.57;;;32.10;70.10;;;;;;4986342;28;21096;-77
2022/09/05 13:48:22;;;;;;;5.77;2.00;;;32.00;69.80;;;;;;4987624;28;20482;-78
2022/09/05 13:50:51;;;;;;;1.47;1.37;;;31.90;69.40;;;;;;4986351;28;20486;-78
2022/09/05 13:53:28;;;;;;;2.27;1.43;;;31.90;70.60;;;;;;4986518;28;20483;-78
2022/09/05 13:56:02;;;;;;;2.20;1.43;;;32.10;70.40;;;;;;4983660;28;20444;-78
2022/09/05 13:58:38;;;;;;;4.57;1.40;;;32.10;69.10;;;;;;4986250;28;20443;-77
2022/09/05 14:01:34;;;;;;;3.03;1.40;;;32.10;65.40;;;;;;4985526;28;20486;-78
2022/09/05 14:04:34;;;;;;;4.67;1.70;;;32.10;66.20;;;;;;4982624;28;20483;-77
2022/09/05 14:07:43;;;;;;;3.90;1.43;;;32.10;65.40;;;;;;4985458;28;20451;-77
2022/09/05 14:10:45;;;;;;;2.20;1.20;;;32.00;64.90;;;;;;4985575;28;20543;-77
2022/09/05 14:13:18;;;;;;;2.73;1.37;;;32.10;62.10;;;;;;4986135;28;20463;-77
2022/09/05 14:15:52;;;;;;;7.90;1.60;;;32.20;62.20;;;;;;4984961;28;20440;-77
2022/09/05 14:18:23;;;;;;;2.40;1.30;;;32.10;61.50;;;;;;4985432;28;20460;-77
2022/09/05 14:21:15;;;;;;;2.47;1.70;;;32.10;63.10;;;;;;4985296;28;20480;-77
2022/09/05 14:23:52;;;;;;;2.53;1.53;;;32.10;65.60;;;;;;4985448;28;20455;-77
2022/09/05 14:26:23;;;;;;;1.50;1.20;;;32.10;69.70;;;;;;4985579;28;20466;-77
2022/09/05 14:29:02;;;;;;;2.27;1.30;;;32.20;68.20;;;;;;4986100;28;20447;-77
2022/09/05 14:31:37;;;;;;;1.83;1.30;;;32.20;60.30;;;;;;4986135;28;20479;-77
2022/09/05 14:34:29;;;;;;;6.13;1.80;;;32.10;65.90;;;;;;4985305;28;20469;-77
2022/09/05 14:37:07;;;;;;;2.90;1.57;;;32.10;67.80;;;;;;4987082;28;20443;-77
2022/09/05 14:40:00;;;;;;;2.40;1.70;;;32.00;68.00;;;;;;4986990;28;20448;-78
2022/09/05 14:42:50;;;;;;;2.60;1.50;;;32.10;68.60;;;;;;4987355;28;20481;-77
2022/09/05 14:45:48;;;;;;;2.40;1.43;;;32.10;68.80;;;;;;4985357;28;20479;-77
2022/09/05 14:48:43;;;;;;;2.50;1.73;;;32.00;68.50;;;;;;4987663;28;20455;-77
2022/09/05 14:51:26;;;;;;;2.50;1.53;;;32.00;68.70;;;;;;4987781;28;20485;-78
2022/09/05 14:53:58;;;;;;;3.47;1.67;;;32.10;70.10;;;;;;4987495;28;20475;-77
2022/09/05 14:56:35;;;;;;;4.80;1.50;;;32.20;67.70;;;;;;4987375;28;20831;-77
2022/09/05 14:59:25;;;;;;;1.50;1.20;;;32.30;66.10;;;;;;4987616;28;20903;-77
2022/09/05 15:02:03;;;;;;;4.00;2.30;;;32.30;66.60;;;;;;4987363;28;20858;-78
2022/09/05 15:04:38;;;;;;;1.40;1.10;;;32.40;65.70;;;;;;4987157;28;20477;-77
2022/09/05 15:07:13;;;;;;;2.10;1.57;;;32.50;68.90;;;;;;4987006;28;20591;-77
2022/09/05 15:09:40;;;;;;;6.57;1.60;;;32.60;65.60;;;;;;4989236;28;20466;-77
2022/09/05 15:12:15;;;;;;;1.97;1.40;;;32.70;68.10;;;;;;4991074;28;20479;-77
2022/09/05 15:14:50;;;;;;;6.87;1.80;;;32.70;66.20;;;;;;4990637;28;20975;-77
2022/09/05 15:17:22;;;;;;;1.43;1.33;;;32.70;68.30;;;;;;4991721;28;20443;-78
2022/09/05 15:19:57;;;;;;;3.00;1.40;;;32.80;67.90;;;;;;4991391;28;20807;-77
2022/09/05 15:22:29;;;;;;;2.47;1.43;;;33.00;66.50;;;;;;4991158;28;20515;-78
2022/09/05 15:25:15;;;;;;;3.70;1.50;;;33.10;67.80;;;;;;4990781;28;20987;-77
2022/09/05 15:27:42;;;;;;;3.70;1.53;;;33.30;66.60;;;;;;4991229;28;20458;-77
2022/09/05 15:30:16;;;;;;;3.70;1.43;;;33.40;65.80;;;;;;4991161;28;20500;-77
2022/09/05 15:32:44;;;;;;;2.00;1.50;;;33.60;67.30;;;;;;4991073;28;20831;-77
2022/09/05 15:35:18;;;;;;;2.40;1.43;;;33.70;68.60;;;;;;4990141;28;20465;-78
2022/09/05 15:37:48;;;;;;;3.57;1.70;;;33.70;64.90;;;;;;4990747;28;20451;-78
2022/09/05 15:40:17;;;;;;;2.43;1.60;;;33.60;64.70;;;;;;4990876;28;20467;-77
2022/09/05 15:42:48;;;;;;;4.83;1.50;;;33.60;65.00;;;;;;4990425;28;20463;-77
2022/09/05 15:45:22;;;;;;;1.73;1.50;;;33.70;65.70;;;;;;4989143;28;20510;-78
2022/09/05 15:48:07;;;;;;;4.13;1.60;;;33.60;64.40;;;;;;4991007;28;20448;-77
2022/09/05 15:50:40;;;;;;;3.37;1.70;;;33.50;67.10;;;;;;4990564;28;20514;-78
2022/09/05 15:53:22;;;;;;;2.63;1.47;;;33.40;65.00;;;;;;4990750;28;20502;-78
2022/09/05 15:55:49;;;;;;;4.20;1.80;;;33.10;65.10;;;;;;4989878;28;20455;-78
2022/09/05 15:58:18;;;;;;;4.37;1.60;;;33.10;66.20;;;;;;4990808;28;20464;-78
2022/09/05 16:00:46;;;;;;;2.20;1.60;;;33.10;66.00;;;;;;4990503;28;20492;-77
2022/09/05 16:03:23;;;;;;;4.87;1.50;;;33.00;65.80;;;;;;4990483;28;20948;-78
2022/09/05 16:05:56;;;;;;;9.30;1.63;;;32.90;67.20;;;;;;4989678;28;20876;-78
2022/09/05 16:08:28;;;;;;;3.93;1.87;;;33.00;65.80;;;;;;4990651;28;20475;-78
2022/09/05 16:11:30;;;;;;;3.47;1.60;;;32.90;66.10;;;;;;4990199;28;20479;-78
2022/09/05 16:14:16;;;;;;;3.60;1.60;;;33.00;65.50;;;;;;4989845;28;20466;-77
2022/09/05 16:16:46;;;;;;;5.90;1.70;;;33.10;69.10;;;;;;4990638;28;20463;-78
2022/09/05 16:19:20;;;;;;;4.23;1.87;;;33.20;68.50;;;;;;4990019;28;21384;-77
2022/09/05 16:21:48;;;;;;;7.53;1.63;;;33.30;68.80;;;;;;4989565;28;20498;-77
2022/09/05 16:24:20;;;;;;;2.97;1.70;;;33.40;68.20;;;;;;4988945;28;20546;-77
2022/09/05 16:26:52;;;;;;;4.27;1.90;;;33.40;67.20;;;;;;4989660;28;20519;-77
2022/09/05 16:29:21;;;;;;;2.83;1.37;;;33.40;69.20;;;;;;4990166;28;20459;-78
2022/09/05 16:32:06;;;;;;;4.33;1.70;;;33.30;67.50;;;;;;4993477;28;20475;-79
2022/09/05 16:34:41;;;;;;;7.30;2.30;;;33.20;67.90;;;;;;4993030;28;20546;-79
2022/09/05 16:37:13;;;;;;;3.53;1.93;;;33.10;69.30;;;;;;4997056;28;20474;-79
2022/09/05 16:39:48;;;;;;;3.17;1.60;;;33.00;68.40;;;;;;4990400;28;20461;-79
2022/09/05 16:42:21;;;;;;;1.90;1.50;;;32.90;67.50;;;;;;4993521;28;20490;-79
2022/09/05 16:44:53;;;;;;;1.60;1.50;;;32.70;66.70;;;;;;4992300;28;20462;-79
2022/09/05 16:47:27;;;;;;;2.23;1.63;;;32.50;67.50;;;;;;4993053;28;20954;-79
2022/09/05 16:50:03;;;;;;;2.23;1.83;;;32.20;67.80;;;;;;4991951;28;20463;-79
2022/09/05 16:52:39;;;;;;;2.90;1.70;;;32.00;67.00;;;;;;4991594;28;20486;-79
2022/09/05 16:55:13;;;;;;;2.43;2.23;;;31.80;67.50;;;;;;4991109;28;20459;-79
2022/09/05 16:57:56;;;;;;;5.50;2.53;;;31.60;70.40;;;;;;4991583;28;20459;-79
2022/09/05 17:00:23;;;;;;;7.87;1.83;;;31.60;72.70;;;;;;4990938;28;20452;-79
2022/09/05 17:02:57;;;;;;;3.43;1.90;;;31.50;73.50;;;;;;4991849;28;20479;-78
2022/09/05 17:05:31;;;;;;;4.23;1.80;;;31.40;73.30;;;;;;4990442;28;21088;-79
2022/09/05 17:08:05;;;;;;;4.90;2.27;;;31.20;72.00;;;;;;4992040;28;20462;-79
2022/09/05 17:10:43;;;;;;;6.70;2.20;;;31.10;74.40;;;;;;4991120;28;20439;-80
2022/09/05 17:13:12;;;;;;;4.97;1.70;;;31.00;75.90;;;;;;4987293;28;20451;-78
2022/09/05 17:15:42;;;;;;;3.43;2.00;;;31.00;77.60;;;;;;4989341;28;20451;-78
2022/09/05 17:18:14;;;;;;;4.03;1.87;;;30.80;76.60;;;;;;4990200;28;20971;-79
2022/09/05 17:20:43;;;;;;;4.27;2.40;;;30.70;78.80;;;;;;4990440;28;20519;-78
2022/09/05 17:23:13;;;;;;;4.90;2.30;;;30.60;79.50;;;;;;4989615;28;20463;-79
2022/09/05 17:25:44;;;;;;;3.30;1.90;;;30.50;80.00;;;;;;4988759;28;20542;-78
2022/09/05 17:28:46;;;;;;;3.67;2.27;;;30.40;80.80;;;;;;4989255;28;20506;-79
2022/09/05 17:31:29;;;;;;;3.40;3.00;;;30.20;81.20;;;;;;4990515;28;20480;-78
2022/09/05 17:33:58;;;;;;;3.70;3.03;;;30.00;82.10;;;;;;4991370;28;20828;-79
2022/09/05 17:36:39;;;;;;;3.60;3.00;;;29.90;83.80;;;;;;4990882;28;20451;-79
2022/09/05 17:39:29;;;;;;;4.27;2.40;;;29.80;84.60;;;;;;4990907;28;20506;-79
2022/09/05 17:42:12;;;;;;;4.10;2.37;;;29.70;85.00;;;;;;4990805;28;20556;-79
2022/09/05 17:44:49;;;;;;;5.40;2.70;;;29.50;85.00;;;;;;4989932;28;20518;-79
2022/09/05 17:47:22;;;;;;;3.37;2.13;;;29.40;85.10;;;;;;4990824;28;20455;-78